sensor_id;sensor_type;location;lat;lon;timestamp;P1;durP1;ratioP1;P2;durP2;ratioP2
438;SDS011;206;48.782;9.252;2023-09-18T00:02:20;5.63;;;4.73;;
438;SDS011;206;48.782;9.252;2023-09-18T00:04:45;6.67;;;4.33;;
438;SDS011;206;48.782;9.252;2023-09-18T00:07:11;5.13;;;4.83;;
438;SDS011;206;48.782;9.252;2023-09-18T00:09:37;5.00;;;4.70;;
438;SDS011;206;48.782;9.252;2023-09-18T00:12:02;6.30;;;5.33;;
438;SDS011;206;48.782;9.252;2023-09-18T00:14:28;4.80;;;4.20;;
438;SDS011;206;48.782;9.252;2023-09-18T00:16:54;5.23;;;3.87;;
438;SDS011;206;48.782;9.252;2023-09-18T00:19:22;6.30;;;5.93;;
438;SDS011;206;48.782;9.252;2023-09-18T00:21:48;6.47;;;5.50;;
438;SDS011;206;48.782;9.252;2023-09-18T00:24:14;7.40;;;5.83;;
438;SDS011;206;48.782;9.252;2023-09-18T00:26:39;5.13;;;4.90;;
438;SDS011;206;48.782;9.252;2023-09-18T00:29:05;10.10;;;6.10;;
438;SDS011;206;48.782;9.252;2023-09-18T00:31:31;5.73;;;4.90;;
438;SDS011;206;48.782;9.252;2023-09-18T00:33:56;6.07;;;5.30;;
438;SDS011;206;48.782;9.252;2023-09-18T00:36:22;11.27;;;5.57;;
438;SDS011;206;48.782;9.252;2023-09-18T00:38:47;4.90;;;4.40;;
438;SDS011;206;48.782;9.252;2023-09-18T00:41:13;4.90;;;4.60;;
438;SDS011;206;48.782;9.252;2023-09-18T00:43:38;5.33;;;3.93;;
438;SDS011;206;48.782;9.252;2023-09-18T00:46:04;4.97;;;4.67;;
438;SDS011;206;48.782;9.252;2023-09-18T00:48:30;3.63;;;3.43;;
438;SDS011;206;48.782;9.252;2023-09-18T00:50:56;5.37;;;3.93;;
438;SDS011;206;48.782;9.252;2023-09-18T00:53:22;6.00;;;4.37;;
438;SDS011;206;48.782;9.252;2023-09-18T00:55:50;5.50;;;4.67;;
438;SDS011;206;48.782;9.252;2023-09-18T00:58:20;5.60;;;4.13;;
438;SDS011;206;48.782;9.252;2023-09-18T01:00:45;4.10;;;3.87;;
438;SDS011;206;48.782;9.252;2023-09-18T01:03:11;5.50;;;5.20;;
438;SDS011;206;48.782;9.252;2023-09-18T01:05:37;4.90;;;4.60;;
438;SDS011;206;48.782;9.252;2023-09-18T01:08:02;4.07;;;3.83;;
438;SDS011;206;48.782;9.252;2023-09-18T01:10:32;4.17;;;3.97;;
438;SDS011;206;48.782;9.252;2023-09-18T01:13:04;6.40;;;4.40;;
438;SDS011;206;48.782;9.252;2023-09-18T01:15:44;3.93;;;3.63;;
438;SDS011;206;48.782;9.252;2023-09-18T01:18:16;4.60;;;4.13;;
438;SDS011;206;48.782;9.252;2023-09-18T01:20:43;8.50;;;4.60;;
438;SDS011;206;48.782;9.252;2023-09-18T01:23:09;5.30;;;4.37;;
438;SDS011;206;48.782;9.252;2023-09-18T01:25:36;5.43;;;4.93;;
438;SDS011;206;48.782;9.252;2023-09-18T01:28:02;6.83;;;6.30;;
438;SDS011;206;48.782;9.252;2023-09-18T01:30:28;9.83;;;6.00;;
438;SDS011;206;48.782;9.252;2023-09-18T01:32:54;17.23;;;7.57;;
438;SDS011;206;48.782;9.252;2023-09-18T01:35:23;6.53;;;5.10;;
438;SDS011;206;48.782;9.252;2023-09-18T01:37:54;7.03;;;5.17;;
438;SDS011;206;48.782;9.252;2023-09-18T01:40:21;3.77;;;3.47;;
438;SDS011;206;48.782;9.252;2023-09-18T01:42:49;5.70;;;4.43;;
438;SDS011;206;48.782;9.252;2023-09-18T01:45:15;3.87;;;3.60;;
438;SDS011;206;48.782;9.252;2023-09-18T01:47:40;5.03;;;3.90;;
438;SDS011;206;48.782;9.252;2023-09-18T01:50:06;5.60;;;3.10;;
438;SDS011;206;48.782;9.252;2023-09-18T01:52:32;5.27;;;3.40;;
438;SDS011;206;48.782;9.252;2023-09-18T01:54:59;5.27;;;4.27;;
438;SDS011;206;48.782;9.252;2023-09-18T01:57:25;4.60;;;3.67;;
438;SDS011;206;48.782;9.252;2023-09-18T01:59:51;3.40;;;2.70;;
438;SDS011;206;48.782;9.252;2023-09-18T02:02:16;3.97;;;2.93;;
438;SDS011;206;48.782;9.252;2023-09-18T02:04:42;8.03;;;3.33;;
438;SDS011;206;48.782;9.252;2023-09-18T02:07:08;5.53;;;2.60;;
438;SDS011;206;48.782;9.252;2023-09-18T02:09:34;3.60;;;2.27;;
438;SDS011;206;48.782;9.252;2023-09-18T02:11:59;5.83;;;2.83;;
438;SDS011;206;48.782;9.252;2023-09-18T02:14:25;5.53;;;2.57;;
438;SDS011;206;48.782;9.252;2023-09-18T02:16:51;4.77;;;2.83;;
438;SDS011;206;48.782;9.252;2023-09-18T02:19:16;5.53;;;3.10;;
438;SDS011;206;48.782;9.252;2023-09-18T02:21:43;7.87;;;3.40;;
438;SDS011;206;48.782;9.252;2023-09-18T02:24:09;6.07;;;2.97;;
438;SDS011;206;48.782;9.252;2023-09-18T02:26:34;6.70;;;3.00;;
438;SDS011;206;48.782;9.252;2023-09-18T02:29:02;6.00;;;2.53;;
438;SDS011;206;48.782;9.252;2023-09-18T02:31:30;11.40;;;3.53;;
438;SDS011;206;48.782;9.252;2023-09-18T02:33:56;10.23;;;3.63;;
438;SDS011;206;48.782;9.252;2023-09-18T02:36:22;5.03;;;3.10;;
438;SDS011;206;48.782;9.252;2023-09-18T02:38:47;8.37;;;3.83;;
438;SDS011;206;48.782;9.252;2023-09-18T02:41:13;6.77;;;4.23;;
438;SDS011;206;48.782;9.252;2023-09-18T02:43:38;7.50;;;3.20;;
438;SDS011;206;48.782;9.252;2023-09-18T02:46:04;8.40;;;3.53;;
438;SDS011;206;48.782;9.252;2023-09-18T02:48:30;8.83;;;3.90;;
438;SDS011;206;48.782;9.252;2023-09-18T02:50:56;6.97;;;4.30;;
438;SDS011;206;48.782;9.252;2023-09-18T02:53:23;9.00;;;4.87;;
438;SDS011;206;48.782;9.252;2023-09-18T02:55:53;13.23;;;5.67;;
438;SDS011;206;48.782;9.252;2023-09-18T02:58:20;8.03;;;4.90;;
438;SDS011;206;48.782;9.252;2023-09-18T03:00:48;5.33;;;4.33;;
438;SDS011;206;48.782;9.252;2023-09-18T03:03:14;11.13;;;5.10;;
438;SDS011;206;48.782;9.252;2023-09-18T03:05:41;6.67;;;4.00;;
438;SDS011;206;48.782;9.252;2023-09-18T03:08:07;6.50;;;3.50;;
438;SDS011;206;48.782;9.252;2023-09-18T03:10:34;8.10;;;3.23;;
438;SDS011;206;48.782;9.252;2023-09-18T03:13:04;8.23;;;2.80;;
438;SDS011;206;48.782;9.252;2023-09-18T03:15:30;6.53;;;3.10;;
438;SDS011;206;48.782;9.252;2023-09-18T03:17:57;15.13;;;4.27;;
438;SDS011;206;48.782;9.252;2023-09-18T03:20:24;8.53;;;3.10;;
438;SDS011;206;48.782;9.252;2023-09-18T03:22:52;10.30;;;3.80;;
438;SDS011;206;48.782;9.252;2023-09-18T03:25:25;12.67;;;4.20;;
438;SDS011;206;48.782;9.252;2023-09-18T03:27:52;18.33;;;3.70;;
438;SDS011;206;48.782;9.252;2023-09-18T03:30:19;7.20;;;3.50;;
438;SDS011;206;48.782;9.252;2023-09-18T03:32:45;6.80;;;3.73;;
438;SDS011;206;48.782;9.252;2023-09-18T03:35:10;8.63;;;4.10;;
438;SDS011;206;48.782;9.252;2023-09-18T03:37:46;13.20;;;4.40;;
438;SDS011;206;48.782;9.252;2023-09-18T03:40:16;6.87;;;3.23;;
438;SDS011;206;48.782;9.252;2023-09-18T03:42:43;10.60;;;3.60;;
438;SDS011;206;48.782;9.252;2023-09-18T03:45:09;12.27;;;3.80;;
438;SDS011;206;48.782;9.252;2023-09-18T03:47:36;7.60;;;4.03;;
438;SDS011;206;48.782;9.252;2023-09-18T03:50:06;8.97;;;3.27;;
438;SDS011;206;48.782;9.252;2023-09-18T03:52:32;12.33;;;4.57;;
438;SDS011;206;48.782;9.252;2023-09-18T03:54:58;9.37;;;4.77;;
438;SDS011;206;48.782;9.252;2023-09-18T03:57:24;8.90;;;5.73;;
438;SDS011;206;48.782;9.252;2023-09-18T03:59:50;7.40;;;4.70;;
438;SDS011;206;48.782;9.252;2023-09-18T04:02:15;9.73;;;4.77;;
438;SDS011;206;48.782;9.252;2023-09-18T04:04:41;10.13;;;4.50;;
438;SDS011;206;48.782;9.252;2023-09-18T04:07:07;7.23;;;4.70;;
438;SDS011;206;48.782;9.252;2023-09-18T04:09:33;10.43;;;4.30;;
438;SDS011;206;48.782;9.252;2023-09-18T04:12:00;6.70;;;3.30;;
438;SDS011;206;48.782;9.252;2023-09-18T04:14:26;8.03;;;4.20;;
438;SDS011;206;48.782;9.252;2023-09-18T04:16:51;10.10;;;3.40;;
438;SDS011;206;48.782;9.252;2023-09-18T04:19:17;5.00;;;2.60;;
438;SDS011;206;48.782;9.252;2023-09-18T04:21:43;10.10;;;4.07;;
438;SDS011;206;48.782;9.252;2023-09-18T04:24:08;5.47;;;3.20;;
438;SDS011;206;48.782;9.252;2023-09-18T04:26:34;8.00;;;3.23;;
438;SDS011;206;48.782;9.252;2023-09-18T04:29:00;10.10;;;3.13;;
438;SDS011;206;48.782;9.252;2023-09-18T04:31:26;8.10;;;3.43;;
438;SDS011;206;48.782;9.252;2023-09-18T04:33:53;5.80;;;3.30;;
438;SDS011;206;48.782;9.252;2023-09-18T04:36:19;6.63;;;3.10;;
438;SDS011;206;48.782;9.252;2023-09-18T04:38:47;9.00;;;3.03;;
438;SDS011;206;48.782;9.252;2023-09-18T04:41:13;8.20;;;3.27;;
438;SDS011;206;48.782;9.252;2023-09-18T04:43:40;8.03;;;3.80;;
438;SDS011;206;48.782;9.252;2023-09-18T04:46:05;7.97;;;3.60;;
438;SDS011;206;48.782;9.252;2023-09-18T04:48:32;6.20;;;2.73;;
438;SDS011;206;48.782;9.252;2023-09-18T04:50:58;10.03;;;2.77;;
438;SDS011;206;48.782;9.252;2023-09-18T04:53:24;7.50;;;2.67;;
438;SDS011;206;48.782;9.252;2023-09-18T04:55:51;5.53;;;2.93;;
438;SDS011;206;48.782;9.252;2023-09-18T04:58:17;9.20;;;4.07;;
438;SDS011;206;48.782;9.252;2023-09-18T05:00:43;10.80;;;5.13;;
438;SDS011;206;48.782;9.252;2023-09-18T05:03:09;10.73;;;5.30;;
438;SDS011;206;48.782;9.252;2023-09-18T05:05:35;11.07;;;5.10;;
438;SDS011;206;48.782;9.252;2023-09-18T05:08:05;9.10;;;5.07;;
438;SDS011;206;48.782;9.252;2023-09-18T05:10:35;11.80;;;5.50;;
438;SDS011;206;48.782;9.252;2023-09-18T05:13:01;7.20;;;4.90;;
438;SDS011;206;48.782;9.252;2023-09-18T05:15:27;7.80;;;5.67;;
438;SDS011;206;48.782;9.252;2023-09-18T05:17:54;16.70;;;5.90;;
438;SDS011;206;48.782;9.252;2023-09-18T05:20:22;11.17;;;4.90;;
438;SDS011;206;48.782;9.252;2023-09-18T05:22:49;5.67;;;3.77;;
438;SDS011;206;48.782;9.252;2023-09-18T05:25:18;12.13;;;4.20;;
438;SDS011;206;48.782;9.252;2023-09-18T05:27:44;7.73;;;3.23;;
438;SDS011;206;48.782;9.252;2023-09-18T05:30:13;8.50;;;4.13;;
438;SDS011;206;48.782;9.252;2023-09-18T05:32:40;6.93;;;4.13;;
438;SDS011;206;48.782;9.252;2023-09-18T05:35:07;6.53;;;3.67;;
438;SDS011;206;48.782;9.252;2023-09-18T05:37:35;6.50;;;3.10;;
438;SDS011;206;48.782;9.252;2023-09-18T05:40:03;5.83;;;3.20;;
438;SDS011;206;48.782;9.252;2023-09-18T05:42:34;5.17;;;3.77;;
438;SDS011;206;48.782;9.252;2023-09-18T05:45:01;6.37;;;4.00;;
438;SDS011;206;48.782;9.252;2023-09-18T05:47:27;5.00;;;3.20;;
438;SDS011;206;48.782;9.252;2023-09-18T05:49:54;10.70;;;3.87;;
438;SDS011;206;48.782;9.252;2023-09-18T05:52:20;6.47;;;3.50;;
438;SDS011;206;48.782;9.252;2023-09-18T05:54:47;7.90;;;3.97;;
438;SDS011;206;48.782;9.252;2023-09-18T05:57:13;13.40;;;5.77;;
438;SDS011;206;48.782;9.252;2023-09-18T05:59:38;8.33;;;3.30;;
438;SDS011;206;48.782;9.252;2023-09-18T06:02:05;7.60;;;3.77;;
438;SDS011;206;48.782;9.252;2023-09-18T06:04:30;9.03;;;3.90;;
438;SDS011;206;48.782;9.252;2023-09-18T06:06:56;6.67;;;3.00;;
438;SDS011;206;48.782;9.252;2023-09-18T06:09:22;11.87;;;3.80;;
438;SDS011;206;48.782;9.252;2023-09-18T06:11:48;7.20;;;3.80;;
438;SDS011;206;48.782;9.252;2023-09-18T06:14:13;10.23;;;3.30;;
438;SDS011;206;48.782;9.252;2023-09-18T06:16:39;6.17;;;3.07;;
438;SDS011;206;48.782;9.252;2023-09-18T06:19:04;6.60;;;2.87;;
438;SDS011;206;48.782;9.252;2023-09-18T06:21:30;12.27;;;3.80;;
438;SDS011;206;48.782;9.252;2023-09-18T06:23:56;6.50;;;3.07;;
438;SDS011;206;48.782;9.252;2023-09-18T06:26:21;9.00;;;2.83;;
438;SDS011;206;48.782;9.252;2023-09-18T06:28:47;8.90;;;3.93;;
438;SDS011;206;48.782;9.252;2023-09-18T06:31:12;7.93;;;3.63;;
438;SDS011;206;48.782;9.252;2023-09-18T06:33:39;6.83;;;2.83;;
438;SDS011;206;48.782;9.252;2023-09-18T06:36:04;8.40;;;3.07;;
438;SDS011;206;48.782;9.252;2023-09-18T06:38:30;10.17;;;6.80;;
438;SDS011;206;48.782;9.252;2023-09-18T06:40:56;9.20;;;4.77;;
438;SDS011;206;48.782;9.252;2023-09-18T06:43:21;9.50;;;4.10;;
438;SDS011;206;48.782;9.252;2023-09-18T06:45:48;9.23;;;3.67;;
438;SDS011;206;48.782;9.252;2023-09-18T06:48:14;10.73;;;3.63;;
438;SDS011;206;48.782;9.252;2023-09-18T06:50:40;9.63;;;4.43;;
438;SDS011;206;48.782;9.252;2023-09-18T06:53:06;10.80;;;5.17;;
438;SDS011;206;48.782;9.252;2023-09-18T06:55:31;9.30;;;5.10;;
438;SDS011;206;48.782;9.252;2023-09-18T06:57:57;10.93;;;5.17;;
438;SDS011;206;48.782;9.252;2023-09-18T07:00:23;6.10;;;4.33;;
438;SDS011;206;48.782;9.252;2023-09-18T07:02:48;4.17;;;3.03;;
438;SDS011;206;48.782;9.252;2023-09-18T07:05:14;6.03;;;3.70;;
438;SDS011;206;48.782;9.252;2023-09-18T07:07:40;11.13;;;4.40;;
438;SDS011;206;48.782;9.252;2023-09-18T07:10:05;6.37;;;3.50;;
438;SDS011;206;48.782;9.252;2023-09-18T07:12:31;8.80;;;3.60;;
438;SDS011;206;48.782;9.252;2023-09-18T07:14:58;7.53;;;3.50;;
438;SDS011;206;48.782;9.252;2023-09-18T07:17:28;5.93;;;3.23;;
438;SDS011;206;48.782;9.252;2023-09-18T07:19:54;5.50;;;3.10;;
438;SDS011;206;48.782;9.252;2023-09-18T07:22:19;7.50;;;3.87;;
438;SDS011;206;48.782;9.252;2023-09-18T07:24:45;10.83;;;3.73;;
438;SDS011;206;48.782;9.252;2023-09-18T07:27:11;9.80;;;3.70;;
438;SDS011;206;48.782;9.252;2023-09-18T07:29:37;5.50;;;2.57;;
438;SDS011;206;48.782;9.252;2023-09-18T07:32:03;6.53;;;3.23;;
438;SDS011;206;48.782;9.252;2023-09-18T07:34:28;9.10;;;3.17;;
438;SDS011;206;48.782;9.252;2023-09-18T07:36:54;6.27;;;3.00;;
438;SDS011;206;48.782;9.252;2023-09-18T07:39:21;6.47;;;2.63;;
438;SDS011;206;48.782;9.252;2023-09-18T07:41:47;8.07;;;3.27;;
438;SDS011;206;48.782;9.252;2023-09-18T07:44:19;7.20;;;3.17;;
438;SDS011;206;48.782;9.252;2023-09-18T07:46:45;6.83;;;2.60;;
438;SDS011;206;48.782;9.252;2023-09-18T07:49:11;9.20;;;1.90;;
438;SDS011;206;48.782;9.252;2023-09-18T07:51:37;13.47;;;3.33;;
438;SDS011;206;48.782;9.252;2023-09-18T07:54:03;6.60;;;2.30;;
438;SDS011;206;48.782;9.252;2023-09-18T07:56:28;3.20;;;2.03;;
438;SDS011;206;48.782;9.252;2023-09-18T07:58:58;4.63;;;2.67;;
438;SDS011;206;48.782;9.252;2023-09-18T08:01:24;6.90;;;3.07;;
438;SDS011;206;48.782;9.252;2023-09-18T08:03:49;7.43;;;2.63;;
438;SDS011;206;48.782;9.252;2023-09-18T08:06:15;9.47;;;2.40;;
438;SDS011;206;48.782;9.252;2023-09-18T08:08:43;5.80;;;2.00;;
438;SDS011;206;48.782;9.252;2023-09-18T08:11:09;8.30;;;2.30;;
438;SDS011;206;48.782;9.252;2023-09-18T08:13:34;6.30;;;2.37;;
438;SDS011;206;48.782;9.252;2023-09-18T08:16:01;7.30;;;2.30;;
438;SDS011;206;48.782;9.252;2023-09-18T08:18:26;4.07;;;2.27;;
438;SDS011;206;48.782;9.252;2023-09-18T08:20:52;3.50;;;1.60;;
438;SDS011;206;48.782;9.252;2023-09-18T08:23:19;7.53;;;2.87;;
438;SDS011;206;48.782;9.252;2023-09-18T08:25:45;6.97;;;1.80;;
438;SDS011;206;48.782;9.252;2023-09-18T08:28:12;4.00;;;2.20;;
438;SDS011;206;48.782;9.252;2023-09-18T08:30:40;4.40;;;2.23;;
438;SDS011;206;48.782;9.252;2023-09-18T08:33:05;10.60;;;2.50;;
438;SDS011;206;48.782;9.252;2023-09-18T08:35:31;4.67;;;2.00;;
438;SDS011;206;48.782;9.252;2023-09-18T08:37:57;5.03;;;1.93;;
438;SDS011;206;48.782;9.252;2023-09-18T08:40:23;5.83;;;1.93;;
438;SDS011;206;48.782;9.252;2023-09-18T08:42:50;4.57;;;1.80;;
438;SDS011;206;48.782;9.252;2023-09-18T08:48:18;8.17;;;1.83;;
438;SDS011;206;48.782;9.252;2023-09-18T08:50:45;1.67;;;1.40;;
438;SDS011;206;48.782;9.252;2023-09-18T08:53:12;3.17;;;1.63;;
438;SDS011;206;48.782;9.252;2023-09-18T08:55:37;3.00;;;1.40;;
438;SDS011;206;48.782;9.252;2023-09-18T08:58:03;3.80;;;1.50;;
438;SDS011;206;48.782;9.252;2023-09-18T09:00:31;1.23;;;0.83;;
438;SDS011;206;48.782;9.252;2023-09-18T09:02:56;1.40;;;0.90;;
438;SDS011;206;48.782;9.252;2023-09-18T09:05:22;1.00;;;0.80;;
438;SDS011;206;48.782;9.252;2023-09-18T09:07:48;3.40;;;1.30;;
438;SDS011;206;48.782;9.252;2023-09-18T09:10:15;3.80;;;1.23;;
438;SDS011;206;48.782;9.252;2023-09-18T09:15:14;3.27;;;1.60;;
438;SDS011;206;48.782;9.252;2023-09-18T09:17:40;1.53;;;1.17;;
438;SDS011;206;48.782;9.252;2023-09-18T09:20:10;2.27;;;1.33;;
438;SDS011;206;48.782;9.252;2023-09-18T09:22:38;2.07;;;1.50;;
438;SDS011;206;48.782;9.252;2023-09-18T09:25:12;1.93;;;0.80;;
438;SDS011;206;48.782;9.252;2023-09-18T09:27:51;3.37;;;1.67;;
438;SDS011;206;48.782;9.252;2023-09-18T09:30:21;2.20;;;1.20;;
438;SDS011;206;48.782;9.252;2023-09-18T09:32:49;6.40;;;1.23;;
438;SDS011;206;48.782;9.252;2023-09-18T09:35:23;4.30;;;1.57;;
438;SDS011;206;48.782;9.252;2023-09-18T09:37:54;1.73;;;1.30;;
438;SDS011;206;48.782;9.252;2023-09-18T09:40:22;8.97;;;2.33;;
438;SDS011;206;48.782;9.252;2023-09-18T09:42:53;1.50;;;1.20;;
438;SDS011;206;48.782;9.252;2023-09-18T09:45:25;1.40;;;1.03;;
438;SDS011;206;48.782;9.252;2023-09-18T09:47:54;4.97;;;1.67;;
438;SDS011;206;48.782;9.252;2023-09-18T09:50:20;2.80;;;1.33;;
438;SDS011;206;48.782;9.252;2023-09-18T09:52:47;2.07;;;1.17;;
438;SDS011;206;48.782;9.252;2023-09-18T09:55:18;3.10;;;1.40;;
438;SDS011;206;48.782;9.252;2023-09-18T09:57:49;2.37;;;1.63;;
438;SDS011;206;48.782;9.252;2023-09-18T10:00:16;3.50;;;1.80;;
438;SDS011;206;48.782;9.252;2023-09-18T10:03:02;3.30;;;1.70;;
438;SDS011;206;48.782;9.252;2023-09-18T10:05:30;9.90;;;3.10;;
438;SDS011;206;48.782;9.252;2023-09-18T10:08:02;2.83;;;2.10;;
438;SDS011;206;48.782;9.252;2023-09-18T10:10:50;4.43;;;1.60;;
438;SDS011;206;48.782;9.252;2023-09-18T10:13:23;2.30;;;1.67;;
438;SDS011;206;48.782;9.252;2023-09-18T10:15:57;2.23;;;1.53;;
438;SDS011;206;48.782;9.252;2023-09-18T10:21:27;3.77;;;1.80;;
438;SDS011;206;48.782;9.252;2023-09-18T10:24:20;3.50;;;1.67;;
438;SDS011;206;48.782;9.252;2023-09-18T10:26:58;5.03;;;1.70;;
438;SDS011;206;48.782;9.252;2023-09-18T10:29:25;5.07;;;1.90;;
438;SDS011;206;48.782;9.252;2023-09-18T10:31:52;5.07;;;1.80;;
438;SDS011;206;48.782;9.252;2023-09-18T10:34:19;3.20;;;1.47;;
438;SDS011;206;48.782;9.252;2023-09-18T10:36:46;6.50;;;1.83;;
438;SDS011;206;48.782;9.252;2023-09-18T10:39:13;6.93;;;1.90;;
438;SDS011;206;48.782;9.252;2023-09-18T10:41:44;4.33;;;1.67;;
438;SDS011;206;48.782;9.252;2023-09-18T10:44:12;2.73;;;1.53;;
438;SDS011;206;48.782;9.252;2023-09-18T10:46:39;5.27;;;2.43;;
438;SDS011;206;48.782;9.252;2023-09-18T10:49:04;4.13;;;1.90;;
438;SDS011;206;48.782;9.252;2023-09-18T10:51:31;2.67;;;1.42;;
438;SDS011;206;48.782;9.252;2023-09-18T10:54:01;8.63;;;1.90;;
438;SDS011;206;48.782;9.252;2023-09-18T10:56:28;5.00;;;1.67;;
438;SDS011;206;48.782;9.252;2023-09-18T10:58:59;1.23;;;1.23;;
438;SDS011;206;48.782;9.252;2023-09-18T11:01:27;2.90;;;1.57;;
438;SDS011;206;48.782;9.252;2023-09-18T11:03:58;4.50;;;2.10;;
438;SDS011;206;48.782;9.252;2023-09-18T11:06:26;3.60;;;1.77;;
438;SDS011;206;48.782;9.252;2023-09-18T11:08:58;3.00;;;1.10;;
438;SDS011;206;48.782;9.252;2023-09-18T11:11:29;3.20;;;1.93;;
438;SDS011;206;48.782;9.252;2023-09-18T11:13:57;5.40;;;1.60;;
438;SDS011;206;48.782;9.252;2023-09-18T11:21:23;3.33;;;1.60;;
438;SDS011;206;48.782;9.252;2023-09-18T11:23:57;2.53;;;2.00;;
438;SDS011;206;48.782;9.252;2023-09-18T11:26:24;2.30;;;1.73;;
438;SDS011;206;48.782;9.252;2023-09-18T11:28:54;8.03;;;2.87;;
438;SDS011;206;48.782;9.252;2023-09-18T11:31:19;9.53;;;3.30;;
438;SDS011;206;48.782;9.252;2023-09-18T11:33:47;5.03;;;2.30;;
438;SDS011;206;48.782;9.252;2023-09-18T11:38:51;5.33;;;2.20;;
438;SDS011;206;48.782;9.252;2023-09-18T11:41:27;2.70;;;1.60;;
438;SDS011;206;48.782;9.252;2023-09-18T11:46:45;5.80;;;2.00;;
438;SDS011;206;48.782;9.252;2023-09-18T11:49:12;2.40;;;1.03;;
438;SDS011;206;48.782;9.252;2023-09-18T11:51:38;5.20;;;2.37;;
438;SDS011;206;48.782;9.252;2023-09-18T11:54:05;6.43;;;2.20;;
438;SDS011;206;48.782;9.252;2023-09-18T11:56:35;3.17;;;1.77;;
438;SDS011;206;48.782;9.252;2023-09-18T11:59:00;2.73;;;1.57;;
438;SDS011;206;48.782;9.252;2023-09-18T12:01:30;3.20;;;1.70;;
438;SDS011;206;48.782;9.252;2023-09-18T12:04:02;3.13;;;1.53;;
438;SDS011;206;48.782;9.252;2023-09-18T12:06:33;2.60;;;1.10;;
438;SDS011;206;48.782;9.252;2023-09-18T12:08:59;1.67;;;1.20;;
438;SDS011;206;48.782;9.252;2023-09-18T12:11:25;4.47;;;1.83;;
438;SDS011;206;48.782;9.252;2023-09-18T12:13:51;3.23;;;1.70;;
438;SDS011;206;48.782;9.252;2023-09-18T12:16:17;6.00;;;1.93;;
438;SDS011;206;48.782;9.252;2023-09-18T12:18:47;3.73;;;1.60;;
438;SDS011;206;48.782;9.252;2023-09-18T12:21:14;2.80;;;1.80;;
438;SDS011;206;48.782;9.252;2023-09-18T12:23:42;3.23;;;1.90;;
438;SDS011;206;48.782;9.252;2023-09-18T12:26:10;2.47;;;1.50;;
438;SDS011;206;48.782;9.252;2023-09-18T12:28:43;3.70;;;1.37;;
438;SDS011;206;48.782;9.252;2023-09-18T12:31:12;4.10;;;1.43;;
438;SDS011;206;48.782;9.252;2023-09-18T12:33:39;4.23;;;1.17;;
438;SDS011;206;48.782;9.252;2023-09-18T12:36:06;1.60;;;1.20;;
438;SDS011;206;48.782;9.252;2023-09-18T12:38:33;3.53;;;1.70;;
438;SDS011;206;48.782;9.252;2023-09-18T12:40:59;6.23;;;1.47;;
438;SDS011;206;48.782;9.252;2023-09-18T12:43:36;9.70;;;1.80;;
438;SDS011;206;48.782;9.252;2023-09-18T12:46:04;3.03;;;1.37;;
438;SDS011;206;48.782;9.252;2023-09-18T12:48:30;2.07;;;1.50;;
438;SDS011;206;48.782;9.252;2023-09-18T12:51:01;3.70;;;1.43;;
438;SDS011;206;48.782;9.252;2023-09-18T12:53:28;3.63;;;1.47;;
438;SDS011;206;48.782;9.252;2023-09-18T12:55:54;3.87;;;1.47;;
438;SDS011;206;48.782;9.252;2023-09-18T12:58:30;4.80;;;1.50;;
438;SDS011;206;48.782;9.252;2023-09-18T13:00:55;6.13;;;1.83;;
438;SDS011;206;48.782;9.252;2023-09-18T13:03:21;1.77;;;1.70;;
438;SDS011;206;48.782;9.252;2023-09-18T13:05:47;4.50;;;1.40;;
438;SDS011;206;48.782;9.252;2023-09-18T13:08:14;4.90;;;1.50;;
438;SDS011;206;48.782;9.252;2023-09-18T13:10:40;2.13;;;1.57;;
438;SDS011;206;48.782;9.252;2023-09-18T13:13:08;2.00;;;1.57;;
438;SDS011;206;48.782;9.252;2023-09-18T13:15:44;3.00;;;1.40;;
438;SDS011;206;48.782;9.252;2023-09-18T13:18:12;2.10;;;1.67;;
438;SDS011;206;48.782;9.252;2023-09-18T13:20:38;4.20;;;1.67;;
438;SDS011;206;48.782;9.252;2023-09-18T13:23:05;5.87;;;1.40;;
438;SDS011;206;48.782;9.252;2023-09-18T13:25:36;2.37;;;1.33;;
438;SDS011;206;48.782;9.252;2023-09-18T13:28:05;4.77;;;1.47;;
438;SDS011;206;48.782;9.252;2023-09-18T13:30:32;2.17;;;1.60;;
438;SDS011;206;48.782;9.252;2023-09-18T13:33:03;3.80;;;1.57;;
438;SDS011;206;48.782;9.252;2023-09-18T13:35:38;3.37;;;1.50;;
438;SDS011;206;48.782;9.252;2023-09-18T13:38:06;1.60;;;1.60;;
438;SDS011;206;48.782;9.252;2023-09-18T13:40:42;3.13;;;1.67;;
438;SDS011;206;48.782;9.252;2023-09-18T13:43:09;3.47;;;1.57;;
438;SDS011;206;48.782;9.252;2023-09-18T13:45:36;4.63;;;2.07;;
438;SDS011;206;48.782;9.252;2023-09-18T13:48:03;1.93;;;1.40;;
438;SDS011;206;48.782;9.252;2023-09-18T13:50:29;6.33;;;1.63;;
438;SDS011;206;48.782;9.252;2023-09-18T13:52:55;1.67;;;1.60;;
438;SDS011;206;48.782;9.252;2023-09-18T13:55:20;6.83;;;2.30;;
438;SDS011;206;48.782;9.252;2023-09-18T13:57:47;2.10;;;1.40;;
438;SDS011;206;48.782;9.252;2023-09-18T14:00:12;4.40;;;1.77;;
438;SDS011;206;48.782;9.252;2023-09-18T14:02:39;4.37;;;1.80;;
438;SDS011;206;48.782;9.252;2023-09-18T14:05:05;2.90;;;1.73;;
438;SDS011;206;48.782;9.252;2023-09-18T14:07:31;8.93;;;2.40;;
438;SDS011;206;48.782;9.252;2023-09-18T14:09:57;2.00;;;1.20;;
438;SDS011;206;48.782;9.252;2023-09-18T14:12:23;4.53;;;1.53;;
438;SDS011;206;48.782;9.252;2023-09-18T14:14:49;5.23;;;1.30;;
438;SDS011;206;48.782;9.252;2023-09-18T14:17:15;1.90;;;1.33;;
438;SDS011;206;48.782;9.252;2023-09-18T14:19:42;4.20;;;2.47;;
438;SDS011;206;48.782;9.252;2023-09-18T14:22:09;2.13;;;1.47;;
438;SDS011;206;48.782;9.252;2023-09-18T14:24:35;2.17;;;1.67;;
438;SDS011;206;48.782;9.252;2023-09-18T14:27:01;1.60;;;1.43;;
438;SDS011;206;48.782;9.252;2023-09-18T14:29:27;5.47;;;1.77;;
438;SDS011;206;48.782;9.252;2023-09-18T14:31:55;2.37;;;1.20;;
438;SDS011;206;48.782;9.252;2023-09-18T14:34:21;2.33;;;1.53;;
438;SDS011;206;48.782;9.252;2023-09-18T14:36:47;2.13;;;1.30;;
438;SDS011;206;48.782;9.252;2023-09-18T14:39:12;5.17;;;1.60;;
438;SDS011;206;48.782;9.252;2023-09-18T14:41:38;5.60;;;2.07;;
438;SDS011;206;48.782;9.252;2023-09-18T14:44:04;2.00;;;1.67;;
438;SDS011;206;48.782;9.252;2023-09-18T14:46:34;4.60;;;1.10;;
438;SDS011;206;48.782;9.252;2023-09-18T14:49:02;6.57;;;2.20;;
438;SDS011;206;48.782;9.252;2023-09-18T14:51:28;1.30;;;0.90;;
438;SDS011;206;48.782;9.252;2023-09-18T14:53:57;1.33;;;0.80;;
438;SDS011;206;48.782;9.252;2023-09-18T14:56:23;2.13;;;1.93;;
438;SDS011;206;48.782;9.252;2023-09-18T14:58:49;2.87;;;1.60;;
438;SDS011;206;48.782;9.252;2023-09-18T15:01:16;7.97;;;1.83;;
438;SDS011;206;48.782;9.252;2023-09-18T15:03:43;6.23;;;1.60;;
438;SDS011;206;48.782;9.252;2023-09-18T15:06:13;2.97;;;1.33;;
438;SDS011;206;48.782;9.252;2023-09-18T15:08:40;2.27;;;1.17;;
438;SDS011;206;48.782;9.252;2023-09-18T15:11:05;6.60;;;2.13;;
438;SDS011;206;48.782;9.252;2023-09-18T15:13:31;1.80;;;0.90;;
438;SDS011;206;48.782;9.252;2023-09-18T15:15:59;4.73;;;1.37;;
438;SDS011;206;48.782;9.252;2023-09-18T15:18:25;3.27;;;1.80;;
438;SDS011;206;48.782;9.252;2023-09-18T15:20:51;4.17;;;1.47;;
438;SDS011;206;48.782;9.252;2023-09-18T15:23:22;2.57;;;1.20;;
438;SDS011;206;48.782;9.252;2023-09-18T15:25:49;1.67;;;1.43;;
438;SDS011;206;48.782;9.252;2023-09-18T15:28:18;1.60;;;1.20;;
438;SDS011;206;48.782;9.252;2023-09-18T15:30:44;1.70;;;1.13;;
438;SDS011;206;48.782;9.252;2023-09-18T15:33:11;3.57;;;1.50;;
438;SDS011;206;48.782;9.252;2023-09-18T15:35:38;1.70;;;1.30;;
438;SDS011;206;48.782;9.252;2023-09-18T15:38:04;3.37;;;1.53;;
438;SDS011;206;48.782;9.252;2023-09-18T15:40:31;2.70;;;1.33;;
438;SDS011;206;48.782;9.252;2023-09-18T15:42:58;2.60;;;1.27;;
438;SDS011;206;48.782;9.252;2023-09-18T15:45:23;1.97;;;1.77;;
438;SDS011;206;48.782;9.252;2023-09-18T15:47:49;1.50;;;1.23;;
438;SDS011;206;48.782;9.252;2023-09-18T15:50:14;3.37;;;2.30;;
438;SDS011;206;48.782;9.252;2023-09-18T15:52:40;2.40;;;1.93;;
438;SDS011;206;48.782;9.252;2023-09-18T15:55:06;9.73;;;2.57;;
438;SDS011;206;48.782;9.252;2023-09-18T15:57:33;2.30;;;1.40;;
438;SDS011;206;48.782;9.252;2023-09-18T16:00:00;4.70;;;1.17;;
438;SDS011;206;48.782;9.252;2023-09-18T16:02:29;4.00;;;1.37;;
438;SDS011;206;48.782;9.252;2023-09-18T16:04:58;1.93;;;1.27;;